sensor_id;sensor_type;location;lat;lon;timestamp;pressure;altitude;pressure_sealevel;temperature;humidity
80726;BME280;70113;59.928;10.878;2023-07-20T00:01:26;97902.53;;;12.27;72.69
80726;BME280;70113;59.928;10.878;2023-07-20T00:03:52;97904.25;;;12.28;72.63
80726;BME280;70113;59.928;10.878;2023-07-20T00:06:21;97913.97;;;12.14;73.77
80726;BME280;70113;59.928;10.878;2023-07-20T00:08:47;97903.88;;;12.35;71.32
80726;BME280;70113;59.928;10.878;2023-07-20T00:11:13;97907.56;;;12.32;71.40
80726;BME280;70113;59.928;10.878;2023-07-20T00:13:39;97902.41;;;12.15;72.21
80726;BME280;70113;59.928;10.878;2023-07-20T00:16:05;97911.66;;;12.07;72.91
80726;BME280;70113;59.928;10.878;2023-07-20T00:18:31;97905.50;;;12.07;74.06
80726;BME280;70113;59.928;10.878;2023-07-20T00:20:57;97909.59;;;12.13;73.91
80726;BME280;70113;59.928;10.878;2023-07-20T00:23:22;97897.59;;;12.21;73.92
80726;BME280;70113;59.928;10.878;2023-07-20T00:25:48;97900.81;;;12.12;74.50
80726;BME280;70113;59.928;10.878;2023-07-20T00:28:14;97905.31;;;12.10;74.53
80726;BME280;70113;59.928;10.878;2023-07-20T00:30:40;97900.28;;;11.91;74.21
80726;BME280;70113;59.928;10.878;2023-07-20T00:33:10;97904.13;;;11.85;75.00
80726;BME280;70113;59.928;10.878;2023-07-20T00:35:36;97912.78;;;12.03;74.53
80726;BME280;70113;59.928;10.878;2023-07-20T00:38:04;97904.66;;;12.06;74.71
80726;BME280;70113;59.928;10.878;2023-07-20T00:40:36;97903.41;;;11.98;74.66
80726;BME280;70113;59.928;10.878;2023-07-20T00:43:02;97906.06;;;11.98;75.08
80726;BME280;70113;59.928;10.878;2023-07-20T00:45:29;97908.53;;;12.01;75.29
80726;BME280;70113;59.928;10.878;2023-07-20T00:47:55;97905.81;;;12.02;74.54
80726;BME280;70113;59.928;10.878;2023-07-20T00:50:21;97901.91;;;11.78;75.09
80726;BME280;70113;59.928;10.878;2023-07-20T00:52:48;97910.69;;;11.78;75.60
80726;BME280;70113;59.928;10.878;2023-07-20T00:55:14;97909.34;;;11.87;74.71
80726;BME280;70113;59.928;10.878;2023-07-20T00:57:40;97912.91;;;11.86;74.19
80726;BME280;70113;59.928;10.878;2023-07-20T01:00:06;97901.91;;;11.94;73.82
80726;BME280;70113;59.928;10.878;2023-07-20T01:02:32;97907.19;;;11.94;72.37
80726;BME280;70113;59.928;10.878;2023-07-20T01:04:58;97915.78;;;11.97;72.43
80726;BME280;70113;59.928;10.878;2023-07-20T01:07:31;97918.25;;;12.00;73.63
80726;BME280;70113;59.928;10.878;2023-07-20T01:12:41;97912.19;;;11.98;72.38
80726;BME280;70113;59.928;10.878;2023-07-20T01:15:08;97909.16;;;11.90;73.95
80726;BME280;70113;59.928;10.878;2023-07-20T01:17:34;97910.03;;;11.59;74.84
80726;BME280;70113;59.928;10.878;2023-07-20T01:20:00;97906.13;;;11.50;76.33
80726;BME280;70113;59.928;10.878;2023-07-20T01:33:26;97913.97;;;11.52;76.82
80726;BME280;70113;59.928;10.878;2023-07-20T01:35:56;97908.34;;;11.42;76.41
80726;BME280;70113;59.928;10.878;2023-07-20T01:38:23;97914.66;;;11.55;76.57
80726;BME280;70113;59.928;10.878;2023-07-20T01:40:50;97909.19;;;11.58;73.98
80726;BME280;70113;59.928;10.878;2023-07-20T01:43:17;97908.34;;;11.58;75.23
80726;BME280;70113;59.928;10.878;2023-07-20T01:45:43;97909.19;;;11.58;75.87
80726;BME280;70113;59.928;10.878;2023-07-20T01:48:09;97908.34;;;11.58;75.50
80726;BME280;70113;59.928;10.878;2023-07-20T01:50:36;97916.38;;;11.40;76.47
80726;BME280;70113;59.928;10.878;2023-07-20T01:53:02;97920.47;;;11.30;76.62
80726;BME280;70113;59.928;10.878;2023-07-20T01:55:27;97913.63;;;11.42;75.66
80726;BME280;70113;59.928;10.878;2023-07-20T01:57:55;97889.41;;;11.34;75.32
80726;BME280;70113;59.928;10.878;2023-07-20T02:00:20;97903.56;;;11.49;74.35
80726;BME280;70113;59.928;10.878;2023-07-20T02:02:50;97909.72;;;11.49;76.03
80726;BME280;70113;59.928;10.878;2023-07-20T02:05:16;97906.31;;;11.31;75.91
80726;BME280;70113;59.928;10.878;2023-07-20T02:07:42;97905.44;;;11.15;77.43
80726;BME280;70113;59.928;10.878;2023-07-20T02:10:08;97904.88;;;11.10;77.63
80726;BME280;70113;59.928;10.878;2023-07-20T02:12:34;97894.78;;;11.16;77.08
80726;BME280;70113;59.928;10.878;2023-07-20T02:15:01;97900.66;;;11.06;77.17
80726;BME280;70113;59.928;10.878;2023-07-20T02:17:28;97900.25;;;11.29;76.33
80726;BME280;70113;59.928;10.878;2023-07-20T02:19:54;97913.06;;;11.37;75.24
80726;BME280;70113;59.928;10.878;2023-07-20T02:22:21;97896.81;;;11.27;74.89
80726;BME280;70113;59.928;10.878;2023-07-20T02:24:46;97910.56;;;11.34;74.93
80726;BME280;70113;59.928;10.878;2023-07-20T02:27:12;97904.66;;;11.60;73.80
80726;BME280;70113;59.928;10.878;2023-07-20T02:29:40;97908.22;;;11.75;69.38
80726;BME280;70113;59.928;10.878;2023-07-20T02:32:06;97910.19;;;11.88;71.73
80726;BME280;70113;59.928;10.878;2023-07-20T02:34:31;97907.53;;;11.88;71.91
80726;BME280;70113;59.928;10.878;2023-07-20T02:36:57;97900.81;;;11.50;72.96
80726;BME280;70113;59.928;10.878;2023-07-20T02:39:24;97906.97;;;11.51;73.86
80726;BME280;70113;59.928;10.878;2023-07-20T02:41:50;97914.56;;;11.41;74.90
80726;BME280;70113;59.928;10.878;2023-07-20T02:44:15;97912.22;;;11.36;76.12
80726;BME280;70113;59.928;10.878;2023-07-20T02:46:41;97903.16;;;11.40;76.44
80726;BME280;70113;59.928;10.878;2023-07-20T02:49:07;97908.78;;;11.34;76.32
80726;BME280;70113;59.928;10.878;2023-07-20T02:51:33;97906.22;;;11.33;76.85
80726;BME280;70113;59.928;10.878;2023-07-20T02:53:58;97902.88;;;11.29;77.94
80726;BME280;70113;59.928;10.878;2023-07-20T02:56:24;97907.66;;;11.54;77.40
80726;BME280;70113;59.928;10.878;2023-07-20T02:58:51;97904.84;;;11.26;78.69
80726;BME280;70113;59.928;10.878;2023-07-20T03:01:18;97910.56;;;11.18;79.96
80726;BME280;70113;59.928;10.878;2023-07-20T03:03:43;97889.31;;;11.35;78.83
80726;BME280;70113;59.928;10.878;2023-07-20T03:06:16;97904.31;;;11.51;78.37
80726;BME280;70113;59.928;10.878;2023-07-20T03:08:42;97900.66;;;11.53;77.94
80726;BME280;70113;59.928;10.878;2023-07-20T03:11:13;97911.84;;;11.27;80.08
80726;BME280;70113;59.928;10.878;2023-07-20T03:13:41;97912.34;;;11.49;79.24
80726;BME280;70113;59.928;10.878;2023-07-20T03:16:08;97903.41;;;11.52;78.04
80726;BME280;70113;59.928;10.878;2023-07-20T03:18:37;97887.88;;;11.46;78.20
80726;BME280;70113;59.928;10.878;2023-07-20T03:21:05;97913.47;;;11.61;78.04
80726;BME280;70113;59.928;10.878;2023-07-20T03:23:31;97905.69;;;11.58;77.83
80726;BME280;70113;59.928;10.878;2023-07-20T03:25:57;97912.50;;;11.62;76.65
80726;BME280;70113;59.928;10.878;2023-07-20T03:28:22;97897.94;;;11.55;78.44
80726;BME280;70113;59.928;10.878;2023-07-20T03:30:57;97907.81;;;11.67;76.58
80726;BME280;70113;59.928;10.878;2023-07-20T03:33:25;97918.53;;;11.80;76.99
80726;BME280;70113;59.928;10.878;2023-07-20T03:35:52;97918.03;;;11.73;76.85
80726;BME280;70113;59.928;10.878;2023-07-20T03:38:18;97917.66;;;11.95;74.75
80726;BME280;70113;59.928;10.878;2023-07-20T03:40:54;97899.91;;;11.97;73.30
80726;BME280;70113;59.928;10.878;2023-07-20T03:43:24;97915.19;;;12.08;72.76
80726;BME280;70113;59.928;10.878;2023-07-20T03:45:50;97915.38;;;12.19;71.01
80726;BME280;70113;59.928;10.878;2023-07-20T03:48:18;97913.50;;;12.21;70.74
80726;BME280;70113;59.928;10.878;2023-07-20T03:50:44;97903.81;;;12.06;73.72
80726;BME280;70113;59.928;10.878;2023-07-20T03:53:13;97900.94;;;11.95;73.45
80726;BME280;70113;59.928;10.878;2023-07-20T03:55:51;97900.03;;;12.10;74.64
80726;BME280;70113;59.928;10.878;2023-07-20T03:58:17;97896.16;;;12.16;73.52
80726;BME280;70113;59.928;10.878;2023-07-20T04:00:48;97903.00;;;12.34;68.82
80726;BME280;70113;59.928;10.878;2023-07-20T04:03:15;97905.88;;;12.45;68.53
80726;BME280;70113;59.928;10.878;2023-07-20T04:05:42;97898.22;;;12.41;69.46
80726;BME280;70113;59.928;10.878;2023-07-20T04:08:08;97906.91;;;12.43;68.67
80726;BME280;70113;59.928;10.878;2023-07-20T04:10:34;97904.56;;;12.52;69.56
80726;BME280;70113;59.928;10.878;2023-07-20T04:13:00;97898.97;;;12.57;67.81
80726;BME280;70113;59.928;10.878;2023-07-20T04:15:26;97909.31;;;12.62;69.11
80726;BME280;70113;59.928;10.878;2023-07-20T04:17:52;97916.09;;;12.51;69.93
80726;BME280;70113;59.928;10.878;2023-07-20T04:20:17;97913.00;;;12.59;69.45
80726;BME280;70113;59.928;10.878;2023-07-20T04:22:43;97919.41;;;12.55;69.52
80726;BME280;70113;59.928;10.878;2023-07-20T04:25:09;97919.34;;;12.57;68.47
80726;BME280;70113;59.928;10.878;2023-07-20T04:27:35;97912.22;;;12.57;68.45
80726;BME280;70113;59.928;10.878;2023-07-20T04:30:02;97917.44;;;12.59;69.78
80726;BME280;70113;59.928;10.878;2023-07-20T04:32:29;97918.47;;;12.56;70.89
80726;BME280;70113;59.928;10.878;2023-07-20T04:34:56;97918.09;;;12.62;71.95
80726;BME280;70113;59.928;10.878;2023-07-20T04:37:21;97905.22;;;12.56;72.89
80726;BME280;70113;59.928;10.878;2023-07-20T04:39:47;97907.69;;;12.59;70.80
80726;BME280;70113;59.928;10.878;2023-07-20T04:42:13;97906.16;;;12.55;70.64
80726;BME280;70113;59.928;10.878;2023-07-20T04:44:39;97897.34;;;12.54;70.13
80726;BME280;70113;59.928;10.878;2023-07-20T04:47:05;97902.28;;;12.61;69.24
80726;BME280;70113;59.928;10.878;2023-07-20T04:49:31;97901.63;;;12.71;70.02
80726;BME280;70113;59.928;10.878;2023-07-20T04:51:57;97910.81;;;12.80;69.31
80726;BME280;70113;59.928;10.878;2023-07-20T04:54:22;97913.75;;;12.75;69.60
80726;BME280;70113;59.928;10.878;2023-07-20T04:56:48;97915.28;;;12.80;70.08
80726;BME280;70113;59.928;10.878;2023-07-20T04:59:14;97906.56;;;12.77;70.78
80726;BME280;70113;59.928;10.878;2023-07-20T05:01:39;97907.22;;;12.81;70.13
80726;BME280;70113;59.928;10.878;2023-07-20T05:04:06;97909.59;;;12.86;69.54
80726;BME280;70113;59.928;10.878;2023-07-20T05:06:31;97912.63;;;12.94;67.21
80726;BME280;70113;59.928;10.878;2023-07-20T05:08:57;97907.31;;;12.94;66.00
80726;BME280;70113;59.928;10.878;2023-07-20T05:11:22;97900.75;;;12.99;63.86
80726;BME280;70113;59.928;10.878;2023-07-20T05:13:48;97911.16;;;13.03;66.16
80726;BME280;70113;59.928;10.878;2023-07-20T05:16:14;97907.59;;;13.04;65.66
80726;BME280;70113;59.928;10.878;2023-07-20T05:18:40;97915.25;;;13.08;66.53
80726;BME280;70113;59.928;10.878;2023-07-20T05:21:06;97909.75;;;13.11;63.68
80726;BME280;70113;59.928;10.878;2023-07-20T05:23:32;97918.47;;;13.13;63.58
80726;BME280;70113;59.928;10.878;2023-07-20T05:25:58;97913.63;;;13.06;63.11
80726;BME280;70113;59.928;10.878;2023-07-20T05:28:25;97912.59;;;13.08;63.83
80726;BME280;70113;59.928;10.878;2023-07-20T05:30:52;97916.84;;;13.11;64.66
80726;BME280;70113;59.928;10.878;2023-07-20T05:33:19;97916.38;;;13.18;64.13
80726;BME280;70113;59.928;10.878;2023-07-20T05:35:44;97916.78;;;13.12;63.17
80726;BME280;70113;59.928;10.878;2023-07-20T05:38:10;97903.13;;;13.18;65.62
80726;BME280;70113;59.928;10.878;2023-07-20T05:40:43;97915.91;;;13.26;63.81
80726;BME280;70113;59.928;10.878;2023-07-20T05:43:10;97910.97;;;13.20;63.22
80726;BME280;70113;59.928;10.878;2023-07-20T05:45:36;97923.88;;;13.26;64.16
80726;BME280;70113;59.928;10.878;2023-07-20T05:48:02;97918.94;;;13.34;63.99
80726;BME280;70113;59.928;10.878;2023-07-20T05:50:27;97917.78;;;13.38;64.06
80726;BME280;70113;59.928;10.878;2023-07-20T05:52:53;97917.41;;;13.44;63.21
80726;BME280;70113;59.928;10.878;2023-07-20T05:55:19;97918.25;;;13.45;64.34
80726;BME280;70113;59.928;10.878;2023-07-20T05:57:46;97911.22;;;13.44;62.91
80726;BME280;70113;59.928;10.878;2023-07-20T06:00:13;97918.59;;;13.53;64.01
80726;BME280;70113;59.928;10.878;2023-07-20T06:02:39;97914.25;;;13.52;63.46
80726;BME280;70113;59.928;10.878;2023-07-20T06:05:06;97924.09;;;13.50;63.15
80726;BME280;70113;59.928;10.878;2023-07-20T06:07:38;97924.47;;;13.58;61.89
80726;BME280;70113;59.928;10.878;2023-07-20T06:10:06;97914.88;;;13.56;61.79
80726;BME280;70113;59.928;10.878;2023-07-20T06:12:32;97921.59;;;13.61;62.27
80726;BME280;70113;59.928;10.878;2023-07-20T06:15:02;97921.56;;;13.76;62.03
80726;BME280;70113;59.928;10.878;2023-07-20T06:17:29;97919.03;;;13.74;61.30
80726;BME280;70113;59.928;10.878;2023-07-20T06:19:55;97923.38;;;13.75;62.29
80726;BME280;70113;59.928;10.878;2023-07-20T06:22:21;97908.84;;;13.81;61.22
80726;BME280;70113;59.928;10.878;2023-07-20T06:24:47;97919.06;;;13.87;61.69
80726;BME280;70113;59.928;10.878;2023-07-20T06:27:12;97895.84;;;13.76;61.52
80726;BME280;70113;59.928;10.878;2023-07-20T06:29:38;97915.56;;;13.86;61.53
80726;BME280;70113;59.928;10.878;2023-07-20T06:32:05;97908.66;;;13.97;61.80
80726;BME280;70113;59.928;10.878;2023-07-20T06:34:30;97909.94;;;14.04;62.95
80726;BME280;70113;59.928;10.878;2023-07-20T06:36:56;97909.94;;;14.04;62.14
80726;BME280;70113;59.928;10.878;2023-07-20T06:39:22;97920.63;;;14.17;62.88
80726;BME280;70113;59.928;10.878;2023-07-20T06:41:48;97909.34;;;14.13;59.65
80726;BME280;70113;59.928;10.878;2023-07-20T06:44:13;97915.31;;;14.17;60.33
80726;BME280;70113;59.928;10.878;2023-07-20T06:46:39;97905.31;;;14.07;61.11
80726;BME280;70113;59.928;10.878;2023-07-20T06:49:06;97918.69;;;14.19;61.80
80726;BME280;70113;59.928;10.878;2023-07-20T06:51:33;97895.50;;;13.95;60.95
80726;BME280;70113;59.928;10.878;2023-07-20T06:53:59;97917.41;;;14.11;60.14
80726;BME280;70113;59.928;10.878;2023-07-20T06:56:24;97918.06;;;14.15;61.11
80726;BME280;70113;59.928;10.878;2023-07-20T06:58:50;97916.16;;;14.17;61.26
80726;BME280;70113;59.928;10.878;2023-07-20T07:01:16;97898.72;;;14.13;60.85
80726;BME280;70113;59.928;10.878;2023-07-20T07:03:42;97910.44;;;14.23;60.58
80726;BME280;70113;59.928;10.878;2023-07-20T07:06:09;97909.91;;;14.31;61.36
80726;BME280;70113;59.928;10.878;2023-07-20T07:08:35;97917.34;;;14.39;60.33
80726;BME280;70113;59.928;10.878;2023-07-20T07:11:01;97900.97;;;14.32;60.25
80726;BME280;70113;59.928;10.878;2023-07-20T07:13:27;97906.16;;;14.33;60.23
80726;BME280;70113;59.928;10.878;2023-07-20T07:15:53;97906.84;;;14.37;60.18
80726;BME280;70113;59.928;10.878;2023-07-20T07:18:19;97910.88;;;14.43;60.59
80726;BME280;70113;59.928;10.878;2023-07-20T07:20:52;97902.38;;;14.38;60.58
80726;BME280;70113;59.928;10.878;2023-07-20T07:23:18;97889.41;;;14.46;60.13
80726;BME280;70113;59.928;10.878;2023-07-20T07:25:44;97906.66;;;14.53;59.74
80726;BME280;70113;59.928;10.878;2023-07-20T07:28:10;97907.06;;;14.47;59.98
80726;BME280;70113;59.928;10.878;2023-07-20T07:30:36;97905.13;;;14.36;60.87
80726;BME280;70113;59.928;10.878;2023-07-20T07:33:01;97892.59;;;14.38;60.84
80726;BME280;70113;59.928;10.878;2023-07-20T07:35:27;97904.97;;;14.52;60.68
80726;BME280;70113;59.928;10.878;2023-07-20T07:37:53;97903.88;;;14.54;59.98
80726;BME280;70113;59.928;10.878;2023-07-20T07:40:18;97902.56;;;14.47;60.43
80726;BME280;70113;59.928;10.878;2023-07-20T07:42:44;97908.81;;;14.61;60.74
80726;BME280;70113;59.928;10.878;2023-07-20T07:45:10;97903.16;;;14.65;60.61
80726;BME280;70113;59.928;10.878;2023-07-20T07:47:35;97906.44;;;14.69;60.15
80726;BME280;70113;59.928;10.878;2023-07-20T07:50:02;97904.84;;;14.66;60.49
80726;BME280;70113;59.928;10.878;2023-07-20T07:52:28;97901.22;;;14.54;59.67
80726;BME280;70113;59.928;10.878;2023-07-20T07:54:54;97911.22;;;14.76;59.57
80726;BME280;70113;59.928;10.878;2023-07-20T07:57:19;97912.63;;;14.82;59.11
80726;BME280;70113;59.928;10.878;2023-07-20T07:59:45;97918.03;;;14.80;58.88
80726;BME280;70113;59.928;10.878;2023-07-20T08:02:10;97909.63;;;14.74;58.97
80726;BME280;70113;59.928;10.878;2023-07-20T08:04:36;97918.78;;;14.70;58.52
80726;BME280;70113;59.928;10.878;2023-07-20T08:07:03;97920.59;;;14.56;58.80
80726;BME280;70113;59.928;10.878;2023-07-20T08:09:29;97923.25;;;14.69;59.11
80726;BME280;70113;59.928;10.878;2023-07-20T08:11:55;97919.31;;;14.75;59.36
80726;BME280;70113;59.928;10.878;2023-07-20T08:14:21;97917.38;;;14.90;57.93
80726;BME280;70113;59.928;10.878;2023-07-20T08:16:46;97923.25;;;14.82;57.84
80726;BME280;70113;59.928;10.878;2023-07-20T08:19:13;97923.25;;;14.82;57.75
80726;BME280;70113;59.928;10.878;2023-07-20T08:21:38;97917.47;;;15.01;57.28
80726;BME280;70113;59.928;10.878;2023-07-20T08:24:04;97907.19;;;14.84;57.10
80726;BME280;70113;59.928;10.878;2023-07-20T08:26:30;97917.69;;;14.98;58.09
80726;BME280;70113;59.928;10.878;2023-07-20T08:28:56;97930.22;;;15.21;56.15
80726;BME280;70113;59.928;10.878;2023-07-20T08:31:21;97926.81;;;15.32;55.49
80726;BME280;70113;59.928;10.878;2023-07-20T08:33:47;97909.91;;;15.08;55.85
80726;BME280;70113;59.928;10.878;2023-07-20T08:36:13;97903.88;;;15.06;54.99
80726;BME280;70113;59.928;10.878;2023-07-20T08:38:39;97916.19;;;15.07;55.42
80726;BME280;70113;59.928;10.878;2023-07-20T08:41:05;97924.50;;;15.15;54.66
80726;BME280;70113;59.928;10.878;2023-07-20T08:43:31;97903.81;;;15.18;54.84
80726;BME280;70113;59.928;10.878;2023-07-20T08:45:57;97886.41;;;15.01;55.95
80726;BME280;70113;59.928;10.878;2023-07-20T08:48:24;97924.59;;;15.26;56.06
80726;BME280;70113;59.928;10.878;2023-07-20T08:50:51;97924.41;;;15.40;54.69
80726;BME280;70113;59.928;10.878;2023-07-20T08:53:20;97928.19;;;15.38;54.91
80726;BME280;70113;59.928;10.878;2023-07-20T08:55:46;97931.88;;;15.48;54.93
80726;BME280;70113;59.928;10.878;2023-07-20T08:58:14;97928.22;;;15.49;54.94
80726;BME280;70113;59.928;10.878;2023-07-20T09:00:41;97904.16;;;15.14;55.29
80726;BME280;70113;59.928;10.878;2023-07-20T09:03:08;97931.59;;;15.27;56.30
80726;BME280;70113;59.928;10.878;2023-07-20T09:05:35;97931.47;;;15.28;56.28
80726;BME280;70113;59.928;10.878;2023-07-20T09:08:01;97922.56;;;15.30;56.97
80726;BME280;70113;59.928;10.878;2023-07-20T09:10:30;97919.31;;;15.37;55.99
80726;BME280;70113;59.928;10.878;2023-07-20T09:12:56;97928.66;;;15.56;56.03
80726;BME280;70113;59.928;10.878;2023-07-20T09:15:22;97921.91;;;15.63;56.60
80726;BME280;70113;59.928;10.878;2023-07-20T09:17:50;97924.50;;;15.88;55.25
80726;BME280;70113;59.928;10.878;2023-07-20T09:20:17;97935.16;;;15.88;55.51
80726;BME280;70113;59.928;10.878;2023-07-20T09:22:43;97922.69;;;15.89;54.87
80726;BME280;70113;59.928;10.878;2023-07-20T09:25:13;97925.00;;;15.93;55.42
80726;BME280;70113;59.928;10.878;2023-07-20T09:27:42;97921.94;;;15.87;54.26
80726;BME280;70113;59.928;10.878;2023-07-20T09:30:08;97935.19;;;16.00;55.14
80726;BME280;70113;59.928;10.878;2023-07-20T09:32:40;97935.91;;;16.26;54.42
80726;BME280;70113;59.928;10.878;2023-07-20T09:35:07;97926.75;;;16.06;52.51
80726;BME280;70113;59.928;10.878;2023-07-20T09:37:37;97927.19;;;16.00;54.05
80726;BME280;70113;59.928;10.878;2023-07-20T09:40:06;97933.19;;;16.14;52.85
80726;BME280;70113;59.928;10.878;2023-07-20T09:42:32;97920.78;;;16.02;53.05
80726;BME280;70113;59.928;10.878;2023-07-20T09:44:58;97922.06;;;16.09;54.13
80726;BME280;70113;59.928;10.878;2023-07-20T09:47:24;97932.97;;;16.17;54.40
80726;BME280;70113;59.928;10.878;2023-07-20T09:49:57;97928.72;;;16.15;53.89
80726;BME280;70113;59.928;10.878;2023-07-20T09:52:25;97922.06;;;16.09;53.64
80726;BME280;70113;59.928;10.878;2023-07-20T09:54:51;97918.94;;;16.15;53.76
80726;BME280;70113;59.928;10.878;2023-07-20T09:57:17;97922.47;;;16.27;53.91
80726;BME280;70113;59.928;10.878;2023-07-20T09:59:43;97926.84;;;16.28;53.94
80726;BME280;70113;59.928;10.878;2023-07-20T10:02:20;97929.66;;;16.38;52.52
80726;BME280;70113;59.928;10.878;2023-07-20T10:04:49;97923.19;;;16.29;51.90
80726;BME280;70113;59.928;10.878;2023-07-20T10:07:18;97926.09;;;16.26;52.01
80726;BME280;70113;59.928;10.878;2023-07-20T10:09:48;97921.97;;;16.22;53.73
80726;BME280;70113;59.928;10.878;2023-07-20T10:12:15;97910.69;;;16.18;52.63
80726;BME280;70113;59.928;10.878;2023-07-20T10:14:42;97907.22;;;16.40;52.48
80726;BME280;70113;59.928;10.878;2023-07-20T10:17:11;97909.44;;;16.47;51.35
80726;BME280;70113;59.928;10.878;2023-07-20T10:22:12;97923.00;;;16.44;51.60
80726;BME280;70113;59.928;10.878;2023-07-20T10:24:38;97913.78;;;16.36;51.52
80726;BME280;70113;59.928;10.878;2023-07-20T10:27:05;97910.88;;;16.39;49.88
80726;BME280;70113;59.928;10.878;2023-07-20T10:29:31;97907.97;;;16.43;50.62
80726;BME280;70113;59.928;10.878;2023-07-20T10:31:58;97919.84;;;16.50;50.69
80726;BME280;70113;59.928;10.878;2023-07-20T10:34:24;97893.19;;;16.50;50.02
80726;BME280;70113;59.928;10.878;2023-07-20T10:36:50;97903.97;;;16.59;50.34
80726;BME280;70113;59.928;10.878;2023-07-20T10:39:31;97903.38;;;16.56;49.20
80726;BME280;70113;59.928;10.878;2023-07-20T10:42:06;97901.81;;;16.64;50.62
80726;BME280;70113;59.928;10.878;2023-07-20T10:44:33;97905.13;;;16.79;47.62
80726;BME280;70113;59.928;10.878;2023-07-20T10:47:07;97900.03;;;16.76;48.49
80726;BME280;70113;59.928;10.878;2023-07-20T10:49:34;97895.16;;;16.70;48.70
80726;BME280;70113;59.928;10.878;2023-07-20T10:52:05;97901.25;;;16.83;48.71
80726;BME280;70113;59.928;10.878;2023-07-20T10:56:58;97890.81;;;16.92;48.47
80726;BME280;70113;59.928;10.878;2023-07-20T10:59:43;97888.16;;;16.92;48.77
80726;BME280;70113;59.928;10.878;2023-07-20T11:02:12;97886.56;;;17.00;49.55
80726;BME280;70113;59.928;10.878;2023-07-20T11:04:41;97884.41;;;17.05;48.34
80726;BME280;70113;59.928;10.878;2023-07-20T11:07:07;97887.66;;;17.09;47.86
80726;BME280;70113;59.928;10.878;2023-07-20T11:09:34;97884.41;;;17.17;47.79
80726;BME280;70113;59.928;10.878;2023-07-20T11:12:13;97890.09;;;17.23;47.89
80726;BME280;70113;59.928;10.878;2023-07-20T11:14:43;97884.50;;;17.26;46.86
80726;BME280;70113;59.928;10.878;2023-07-20T11:17:14;97874.31;;;17.31;47.18
80726;BME280;70113;59.928;10.878;2023-07-20T11:19:40;97870.63;;;17.44;49.05
80726;BME280;70113;59.928;10.878;2023-07-20T11:22:06;97865.41;;;17.42;46.80
80726;BME280;70113;59.928;10.878;2023-07-20T11:24:33;97877.06;;;17.52;47.10
80726;BME280;70113;59.928;10.878;2023-07-20T11:27:00;97878.22;;;17.60;47.29
80726;BME280;70113;59.928;10.878;2023-07-20T11:29:26;97876.53;;;17.70;46.41
80726;BME280;70113;59.928;10.878;2023-07-20T11:31:53;97876.38;;;17.71;47.32
80726;BME280;70113;59.928;10.878;2023-07-20T11:34:20;97880.38;;;17.77;47.49
80726;BME280;70113;59.928;10.878;2023-07-20T11:36:48;97879.88;;;17.83;46.86
80726;BME280;70113;59.928;10.878;2023-07-20T11:39:15;97866.22;;;17.97;47.65
80726;BME280;70113;59.928;10.878;2023-07-20T11:41:52;97869.00;;;17.96;46.38
80726;BME280;70113;59.928;10.878;2023-07-20T11:44:23;97873.25;;;17.98;46.79
80726;BME280;70113;59.928;10.878;2023-07-20T11:47:05;97869.56;;;18.11;47.83
80726;BME280;70113;59.928;10.878;2023-07-20T11:49:36;97869.91;;;18.17;47.86
80726;BME280;70113;59.928;10.878;2023-07-20T11:52:05;97870.59;;;18.19;46.98
80726;BME280;70113;59.928;10.878;2023-07-20T11:54:32;97860.88;;;18.18;46.95
80726;BME280;70113;59.928;10.878;2023-07-20T11:57:01;97866.31;;;18.28;45.95
80726;BME280;70113;59.928;10.878;2023-07-20T11:59:26;97865.47;;;18.28;46.18
80726;BME280;70113;59.928;10.878;2023-07-20T12:01:52;97862.19;;;18.45;46.94
80726;BME280;70113;59.928;10.878;2023-07-20T12:04:18;97869.22;;;18.46;44.65
80726;BME280;70113;59.928;10.878;2023-07-20T12:06:45;97863.69;;;18.38;44.76
80726;BME280;70113;59.928;10.878;2023-07-20T12:09:14;97866.19;;;18.30;45.31
80726;BME280;70113;59.928;10.878;2023-07-20T12:11:43;97863.31;;;18.42;44.59
80726;BME280;70113;59.928;10.878;2023-07-20T12:14:10;97860.34;;;18.45;44.71
80726;BME280;70113;59.928;10.878;2023-07-20T12:16:36;97859.81;;;18.73;45.61
80726;BME280;70113;59.928;10.878;2023-07-20T12:19:09;97861.78;;;18.50;43.47
80726;BME280;70113;59.928;10.878;2023-07-20T12:21:38;97857.88;;;18.54;44.15
80726;BME280;70113;59.928;10.878;2023-07-20T12:24:04;97859.72;;;18.53;45.47
80726;BME280;70113;59.928;10.878;2023-07-20T12:26:31;97858.31;;;18.80;46.09
80726;BME280;70113;59.928;10.878;2023-07-20T12:28:57;97865.72;;;18.97;44.50
80726;BME280;70113;59.928;10.878;2023-07-20T12:31:24;97862.63;;;19.02;43.90
80726;BME280;70113;59.928;10.878;2023-07-20T12:33:51;97860.97;;;19.10;44.28
80726;BME280;70113;59.928;10.878;2023-07-20T12:36:18;97860.88;;;19.22;42.91
80726;BME280;70113;59.928;10.878;2023-07-20T12:38:44;97853.50;;;19.14;43.15
80726;BME280;70113;59.928;10.878;2023-07-20T12:41:11;97853.97;;;19.19;43.24
80726;BME280;70113;59.928;10.878;2023-07-20T12:43:44;97853.97;;;19.19;42.31
80726;BME280;70113;59.928;10.878;2023-07-20T12:46:11;97857.94;;;19.25;42.23
80726;BME280;70113;59.928;10.878;2023-07-20T12:48:38;97856.09;;;19.35;42.92
80726;BME280;70113;59.928;10.878;2023-07-20T12:51:07;97854.28;;;19.45;42.84
80726;BME280;70113;59.928;10.878;2023-07-20T12:53:33;97844.53;;;19.34;41.80
80726;BME280;70113;59.928;10.878;2023-07-20T12:56:00;97839.34;;;19.52;43.36
80726;BME280;70113;59.928;10.878;2023-07-20T12:58:25;97845.94;;;19.39;42.73
80726;BME280;70113;59.928;10.878;2023-07-20T13:00:52;97838.47;;;19.42;42.78
80726;BME280;70113;59.928;10.878;2023-07-20T13:03:18;97842.88;;;19.53;42.61
80726;BME280;70113;59.928;10.878;2023-07-20T13:05:48;97840.97;;;19.65;40.42
80726;BME280;70113;59.928;10.878;2023-07-20T13:08:15;97842.22;;;19.70;42.79